Time;durP1;ratioP1;P1;durP2;ratioP2;P2;SDS_P1;SDS_P2;PMS_P1;PMS_P2;Temp;Humidity;BMP_temperature;BMP_pressure;BME280_temperature;BME280_humidity;BME280_pressure;Samples;Min_cycle;Max_cycle;Signal;HPM_P1;HPM_P2
2022/04/27 00:00:58;;;;;;;1.38;1.27;;;;;;;20.85;38.53;102185.97;4995378;28;20542;-73
2022/04/27 00:03:23;;;;;;;1.15;1.00;;;;;;;20.85;38.47;102185.13;5013452;28;20167;-73
2022/04/27 00:05:49;;;;;;;0.90;0.90;;;;;;;20.84;38.35;102173.25;5011658;28;20379;-73
2022/04/27 00:08:14;;;;;;;1.33;1.20;;;;;;;20.84;38.44;102175.19;5011656;28;20454;-73
2022/04/27 00:10:39;;;;;;;2.47;1.23;;;;;;;20.83;38.44;102173.50;5012833;28;20038;-73
2022/04/27 00:13:05;;;;;;;0.98;0.98;;;;;;;20.83;38.29;102177.13;5011390;28;20062;-73
2022/04/27 00:15:31;;;;;;;1.20;1.10;;;;;;;20.83;38.50;102170.75;5012996;28;20042;-73
2022/04/27 00:17:56;;;;;;;1.10;1.10;;;;;;;20.81;38.41;102168.25;5011958;28;20041;-73
2022/04/27 00:20:22;;;;;;;1.13;1.08;;;;;;;20.81;38.42;102171.00;5012659;28;20416;-73
2022/04/27 00:22:47;;;;;;;1.10;1.00;;;;;;;20.81;38.58;102161.91;5013180;28;20034;-73
2022/04/27 00:25:13;;;;;;;0.90;0.90;;;;;;;20.81;38.39;102161.91;5011529;28;20041;-73
2022/04/27 00:27:38;;;;;;;1.00;1.00;;;;;;;20.80;38.52;102163.84;5012253;28;20030;-73
2022/04/27 00:30:04;;;;;;;1.20;1.10;;;;;;;20.79;38.38;102164.91;5011320;28;20037;-73
2022/04/27 00:32:30;;;;;;;1.27;1.17;;;;;;;20.79;38.26;102164.91;5012712;28;20029;-73
2022/04/27 00:34:55;;;;;;;1.40;1.30;;;;;;;20.80;38.36;102171.25;5012435;28;20063;-73
2022/04/27 00:37:20;;;;;;;1.08;1.08;;;;;;;20.79;38.37;102173.19;5012279;28;20414;-74
2022/04/27 00:39:46;;;;;;;1.02;1.02;;;;;;;20.78;38.25;102174.25;5011208;28;20041;-74
2022/04/27 00:42:20;;;;;;;1.15;1.05;;;;;;;20.78;38.39;102177.03;5012288;28;20446;-73
2022/04/27 00:44:46;;;;;;;1.00;1.00;;;;;;;20.78;38.58;102188.06;5011779;28;20344;-73
2022/04/27 00:47:12;;;;;;;1.13;1.13;;;;;;;20.77;38.35;102180.03;5012158;28;20041;-73
2022/04/27 00:49:44;;;;;;;1.70;1.08;;;;;;;20.78;38.30;102182.53;5012205;28;20030;-73
2022/04/27 00:52:14;;;;;;;1.17;1.17;;;;;;;20.77;38.39;102186.41;5012194;28;20109;-73
2022/04/27 00:54:50;;;;;;;1.42;1.20;;;;;;;20.78;38.54;102190.81;5011812;28;20554;-73
2022/04/27 00:57:15;;;;;;;1.23;1.17;;;;;;;20.76;38.15;102187.47;5010892;28;20045;-73
2022/04/27 00:59:41;;;;;;;1.27;1.17;;;;;;;;;;5011791;28;20038;-73
2022/04/27 01:02:06;;;;;;;1.05;1.05;;;;;;;;;;5011988;28;20030;-73
2022/04/27 01:04:36;;;;;;;1.30;1.10;;;;;;;20.74;38.52;102186.88;5010732;28;20038;-73
2022/04/27 01:07:03;;;;;;;1.20;1.10;;;;;;;20.73;38.36;102192.66;4994355;28;20064;-74
2022/04/27 01:09:29;;;;;;;1.15;1.13;;;;;;;20.74;38.28;102197.09;5012184;28;20484;-74
2022/04/27 01:11:56;;;;;;;1.10;1.10;;;;;;;20.74;38.27;102194.31;5010620;28;20030;-74
2022/04/27 01:14:22;;;;;;;0.90;0.90;;;;;;;20.73;38.22;102189.88;5011889;28;20482;-74
2022/04/27 01:16:54;;;;;;;1.02;1.00;;;;;;;20.73;38.22;102196.25;5012053;28;20117;-74
2022/04/27 01:19:23;;;;;;;1.02;1.02;;;;;;;20.72;38.21;102199.28;5010649;28;20066;-74
2022/04/27 01:21:48;;;;;;;1.00;1.00;;;;;;;20.71;38.48;102197.59;5012246;28;20034;-74
2022/04/27 01:24:24;;;;;;;1.05;1.05;;;;;;;20.71;38.17;102198.41;5011281;28;20397;-74
2022/04/27 01:26:50;;;;;;;0.93;0.93;;;;;;;20.72;38.29;102202.03;5011334;28;20442;-73
2022/04/27 01:29:16;;;;;;;0.93;0.93;;;;;;;20.70;38.18;102202.28;5010311;28;20108;-74
2022/04/27 01:31:43;;;;;;;1.30;1.20;;;;;;;20.70;38.12;102205.03;5012119;28;20037;-74
2022/04/27 01:34:08;;;;;;;1.27;1.17;;;;;;;20.70;38.08;102204.19;5011513;28;20038;-74
2022/04/27 01:36:33;;;;;;;1.15;1.10;;;;;;;20.70;38.21;102207.78;5010218;28;20083;-74
2022/04/27 01:38:59;;;;;;;1.40;1.15;;;;;;;20.70;38.09;102206.94;5011464;28;20113;-74
2022/04/27 01:41:24;;;;;;;1.45;1.30;;;;;;;20.68;38.57;102201.69;5010902;28;20038;-74
2022/04/27 01:43:50;;;;;;;1.30;1.20;;;;;;;20.68;37.81;102205.28;5010100;28;20462;-72
2022/04/27 01:46:15;;;;;;;1.30;1.20;;;;;;;20.68;38.33;102208.03;5011383;28;20084;-72
2022/04/27 01:48:40;;;;;;;1.30;1.17;;;;;;;20.67;38.29;102209.13;5011063;28;20502;-72
2022/04/27 01:51:06;;;;;;;1.23;1.20;;;;;;;20.67;38.17;102208.31;5010973;28;20030;-72
2022/04/27 01:56:16;;;;;;;1.00;1.00;;;;;;;20.67;38.05;102213.81;5010427;28;20076;-73
2022/04/27 01:58:41;;;;;;;1.23;1.23;;;;;;;20.66;38.12;102212.97;5011457;28;20113;-73
2022/04/27 02:01:11;;;;;;;1.23;1.17;;;;;;;20.66;38.47;102209.38;5011436;28;20070;-73
2022/04/27 02:03:36;;;;;;;1.33;1.23;;;;;;;20.65;38.22;102207.66;5009905;28;20081;-73
2022/04/27 02:06:02;;;;;;;1.25;1.25;;;;;;;20.66;38.25;102214.88;5011081;28;20058;-73
2022/04/27 02:08:27;;;;;;;1.40;1.30;;;;;;;20.66;38.11;102220.41;5011074;28;20034;-73
2022/04/27 02:10:52;;;;;;;1.25;1.15;;;;;;;20.64;38.04;102209.59;5011332;28;20039;-74
2022/04/27 02:13:18;;;;;;;1.30;1.20;;;;;;;20.65;38.08;102218.69;5011055;28;20386;-73
2022/04/27 02:15:44;;;;;;;1.40;1.30;;;;;;;20.65;38.34;102224.22;5011517;28;20091;-73
2022/04/27 02:18:09;;;;;;;0.95;0.95;;;;;;;20.63;38.13;102216.19;5011275;28;20038;-73
2022/04/27 02:20:35;;;;;;;1.02;1.02;;;;;;;20.64;38.21;102219.81;5011497;28;20071;-73
2022/04/27 02:23:00;;;;;;;1.10;1.10;;;;;;;20.63;38.15;102218.13;5009951;28;20431;-73
2022/04/27 02:25:26;;;;;;;1.23;1.13;;;;;;;20.63;38.06;102223.63;5009284;28;20102;-73
2022/04/27 02:27:52;;;;;;;1.17;1.08;;;;;;;20.63;38.07;102223.63;5010834;28;20038;-73
2022/04/27 02:30:20;;;;;;;1.27;1.20;;;;;;;20.62;38.09;102225.53;5010826;28;20033;-73
2022/04/27 02:32:46;;;;;;;1.20;1.20;;;;;;;20.62;38.19;102230.22;5010332;28;20113;-73
2022/04/27 02:35:14;;;;;;;1.58;1.48;;;;;;;20.62;38.02;102227.47;5010684;28;20040;-73
2022/04/27 02:37:39;;;;;;;1.00;1.00;;;;;;;20.61;38.21;102232.16;5010740;28;20488;-74
2022/04/27 02:40:06;;;;;;;1.30;1.20;;;;;;;20.62;38.26;102225.53;5010709;28;20034;-73
2022/04/27 02:42:31;;;;;;;1.38;1.27;;;;;;;20.62;38.03;102235.75;5011219;28;20095;-74
2022/04/27 02:44:57;;;;;;;1.70;1.30;;;;;;;20.61;37.93;102239.56;5009444;28;20034;-74
2022/04/27 02:47:23;;;;;;;0.93;0.93;;;;;;;20.61;38.13;102242.31;5009496;28;20489;-73
2022/04/27 02:52:32;;;;;;;1.25;1.15;;;;;;;20.59;38.11;102252.78;5010610;28;20506;-73
2022/04/27 02:54:57;;;;;;;1.33;1.23;;;;;;;20.60;38.08;102243.44;5010165;28;20050;-73
2022/04/27 02:57:23;;;;;;;1.02;1.02;;;;;;;20.59;38.14;102239.00;5009364;28;20041;-73
2022/04/27 02:59:49;;;;;;;1.58;1.30;;;;;;;20.59;38.15;102247.28;5008956;28;20453;-73
2022/04/27 03:02:14;;;;;;;0.90;0.90;;;;;;;20.58;37.98;102240.06;5012536;28;20030;-73
2022/04/27 03:04:41;;;;;;;1.50;1.15;;;;;;;20.58;38.08;102240.94;5013735;28;20030;-73
2022/04/27 03:07:07;;;;;;;1.05;1.05;;;;;;;20.57;38.15;102244.75;5013802;28;20462;-73
2022/04/27 03:09:33;;;;;;;1.10;1.10;;;;;;;20.57;38.22;102241.19;5013036;28;20073;-73
2022/04/27 03:11:58;;;;;;;1.20;1.20;;;;;;;20.57;37.95;102247.53;5013736;28;20455;-73
2022/04/27 03:14:24;;;;;;;1.23;1.20;;;;;;;20.57;38.00;102244.75;5012614;28;20054;-73
2022/04/27 03:16:49;;;;;;;1.15;1.05;;;;;;;20.57;38.02;102241.19;5013888;28;20104;-73
2022/04/27 03:19:15;;;;;;;1.25;1.15;;;;;;;20.56;37.96;102243.06;5013345;28;20108;-74
2022/04/27 03:21:41;;;;;;;1.25;1.25;;;;;;;20.56;38.06;102243.06;5013593;28;20061;-74
2022/04/27 03:24:07;;;;;;;1.38;1.27;;;;;;;20.55;38.03;102249.69;5013002;28;20479;-74
2022/04/27 03:26:32;;;;;;;1.23;1.23;;;;;;;20.55;37.99;102246.09;5013149;28;20113;-73
2022/04/27 03:28:58;;;;;;;1.00;1.00;;;;;;;20.54;38.00;102248.03;5013724;28;20462;-73
2022/04/27 03:31:24;;;;;;;1.40;1.30;;;;;;;20.54;37.86;102247.19;5013400;28;20037;-74
2022/04/27 03:33:49;;;;;;;1.10;1.10;;;;;;;20.53;38.07;102240.00;5013645;28;20038;-73
2022/04/27 03:36:15;;;;;;;1.23;1.15;;;;;;;20.54;38.06;102250.78;5013254;28;20045;-74
2022/04/27 03:38:42;;;;;;;1.30;1.20;;;;;;;20.54;38.14;102249.94;5012028;28;20472;-74
2022/04/27 03:41:08;;;;;;;1.40;1.30;;;;;;;20.52;37.94;102244.66;5012148;28;20026;-74
2022/04/27 03:43:34;;;;;;;1.00;1.00;;;;;;;20.53;37.97;102259.28;5013200;28;20060;-74
2022/04/27 03:46:00;;;;;;;1.55;1.45;;;;;;;20.50;37.91;102255.94;5012198;28;20431;-73
2022/04/27 03:48:26;;;;;;;1.38;1.27;;;;;;;20.50;37.69;102253.19;5012010;28;20038;-74
2022/04/27 03:50:51;;;;;;;1.30;1.20;;;;;;;20.51;37.93;102262.31;5013097;28;20057;-74
2022/04/27 03:53:17;;;;;;;1.10;1.10;;;;;;;20.50;38.03;102252.34;5013106;28;20034;-74
2022/04/27 03:55:42;;;;;;;1.30;1.20;;;;;;;20.49;38.07;102262.56;5012662;28;20478;-74
2022/04/27 03:58:08;;;;;;;1.08;1.08;;;;;;;20.51;37.93;102270.56;5013295;28;20053;-73
2022/04/27 04:00:34;;;;;;;1.30;1.20;;;;;;;20.51;37.93;102270.56;5012988;28;20112;-74
2022/04/27 04:03:00;;;;;;;1.45;1.35;;;;;;;20.50;37.96;102274.41;5012495;28;20091;-73
2022/04/27 04:05:27;;;;;;;1.23;1.23;;;;;;;20.49;37.82;102278.25;5012218;28;20060;-74
2022/04/27 04:07:52;;;;;;;1.45;1.10;;;;;;;20.48;37.87;102273.84;5012879;28;20042;-74
2022/04/27 04:10:18;;;;;;;1.42;1.33;;;;;;;20.48;37.99;102280.16;5012535;28;20401;-73
2022/04/27 04:12:45;;;;;;;1.38;1.27;;;;;;;20.47;38.09;102286.75;5010909;28;20424;-73
2022/04/27 04:15:12;;;;;;;1.48;1.40;;;;;;;20.47;37.87;102286.75;5012765;28;20157;-73
2022/04/27 04:17:37;;;;;;;1.15;1.15;;;;;;;20.47;37.95;102283.19;5012986;28;20394;-73
2022/04/27 04:20:04;;;;;;;1.35;1.27;;;;;;;20.47;37.84;102281.25;5012942;28;20066;-73
2022/04/27 04:22:29;;;;;;;1.20;1.20;;;;;;;20.47;37.89;102286.75;5012642;28;20037;-73
2022/04/27 04:30:23;;;;;;;1.35;1.35;;;;;;;20.45;37.91;102288.09;5012133;28;20048;-73
2022/04/27 04:32:48;;;;;;;1.10;1.00;;;;;;;20.46;37.82;102292.50;5012225;28;20030;-73
2022/04/27 04:35:14;;;;;;;1.48;1.38;;;;;;;20.45;37.75;102291.69;5012499;28;20453;-73
2022/04/27 04:37:39;;;;;;;1.17;1.17;;;;;;;20.46;37.44;102306.31;5011003;28;20029;-73
2022/04/27 04:40:05;;;;;;;1.40;1.30;;;;;;;20.46;37.79;102303.53;5011223;28;20073;-74
2022/04/27 04:42:32;;;;;;;1.10;1.10;;;;;;;20.45;37.78;102297.22;5010924;28;20038;-74
2022/04/27 04:44:58;;;;;;;1.17;1.10;;;;;;;20.45;37.81;102301.91;5011118;28;20026;-73
2022/04/27 04:47:23;;;;;;;1.40;1.30;;;;;;;20.45;37.90;102302.72;5012550;28;20029;-73
2022/04/27 04:49:48;;;;;;;1.23;1.20;;;;;;;20.44;37.62;102309.31;5012547;28;20030;-74
2022/04/27 04:52:14;;;;;;;1.13;1.13;;;;;;;20.45;37.53;102321.19;5011556;28;20033;-74
2022/04/27 04:54:39;;;;;;;1.50;1.40;;;;;;;20.44;37.83;102320.34;5010735;28;20076;-74
2022/04/27 04:57:04;;;;;;;1.38;1.27;;;;;;;20.44;37.82;102317.56;5011132;28;20061;-74
2022/04/27 04:59:30;;;;;;;1.60;1.50;;;;;;;20.45;37.85;102318.44;5011813;28;20046;-74
2022/04/27 05:01:55;;;;;;;1.10;1.10;;;;;;;20.44;38.03;102316.75;5011934;28;20090;-73
2022/04/27 05:04:22;;;;;;;1.42;1.33;;;;;;;20.43;37.88;102324.19;5011690;28;20069;-73
2022/04/27 05:06:47;;;;;;;1.38;1.27;;;;;;;20.44;37.97;102325.84;5011243;28;20064;-73
2022/04/27 05:09:13;;;;;;;1.40;1.30;;;;;;;20.44;37.79;102320.34;5011910;28;20453;-72
2022/04/27 05:11:38;;;;;;;1.40;1.30;;;;;;;20.44;37.77;102325.03;5011019;28;20462;-73
2022/04/27 05:14:04;;;;;;;1.20;1.20;;;;;;;20.43;38.15;102328.84;5010503;28;20049;-74
2022/04/27 05:16:31;;;;;;;1.50;1.40;;;;;;;20.44;38.07;102331.34;5012083;28;20501;-74
2022/04/27 05:18:56;;;;;;;1.67;1.40;;;;;;;20.44;37.19;102325.03;5012332;28;20065;-77
2022/04/27 05:21:21;;;;;;;2.50;2.30;;;;;;;20.31;34.74;102332.50;5011996;28;20061;-72
2022/04/27 05:23:47;;;;;;;2.92;2.72;;;;;;;20.06;34.13;102338.31;5010943;28;20497;-74
2022/04/27 05:26:12;;;;;;;3.35;3.13;;;;;;;19.80;34.28;102334.19;5011621;28;20086;-73
2022/04/27 05:34:22;;;;;;;4.40;4.00;;;;;;;18.91;35.08;102343.28;4970413;28;20488;-72
2022/04/27 05:36:48;;;;;;;4.95;3.70;;;;;;;18.69;35.42;102356.69;4998671;28;20075;-72
2022/04/27 05:39:13;;;;;;;4.28;3.90;;;;;;;18.50;35.61;102361.41;5011763;28;20114;-72
2022/04/27 05:41:39;;;;;;;3.75;3.45;;;;;;;18.34;36.10;102366.47;5010049;28;20076;-72
2022/04/27 05:44:09;;;;;;;3.95;3.65;;;;;;;18.21;36.31;102361.13;5011348;28;20458;-72
2022/04/27 05:46:41;;;;;;;4.20;3.90;;;;;;;18.09;37.20;102365.75;5011669;28;20120;-72
2022/04/27 05:49:06;;;;;;;4.03;3.72;;;;;;;17.98;37.30;102376.41;5010739;28;20128;-71
2022/04/27 05:51:32;;;;;;;3.72;3.42;;;;;;;17.94;37.47;102377.06;5011376;28;20109;-71
2022/04/27 05:53:57;;;;;;;3.67;3.38;;;;;;;17.96;37.65;102372.22;5010038;28;20061;-74
2022/04/27 05:56:24;;;;;;;3.38;3.10;;;;;;;18.09;38.18;102374.81;5010848;28;20068;-74
2022/04/27 05:58:50;;;;;;;3.00;2.80;;;;;;;18.27;37.88;102373.94;5009808;28;20132;-74
2022/04/27 06:01:16;;;;;;;2.80;2.60;;;;;;;18.48;37.57;102371.78;5010054;28;20045;-75
2022/04/27 06:03:41;;;;;;;2.90;2.70;;;;;;;18.65;37.38;102381.06;5010824;28;20398;-75
2022/04/27 06:06:07;;;;;;;2.83;2.63;;;;;;;18.81;37.31;102379.59;5011153;28;20129;-75
2022/04/27 06:08:32;;;;;;;2.97;2.60;;;;;;;18.94;37.32;102381.31;5011333;28;20029;-75
2022/04/27 06:10:58;;;;;;;2.30;2.20;;;;;;;19.05;37.27;102376.94;5009637;28;20041;-75
2022/04/27 06:13:24;;;;;;;2.25;2.15;;;;;;;19.17;37.01;102382.47;5009662;28;20057;-75
2022/04/27 06:15:50;;;;;;;2.40;2.20;;;;;;;19.24;37.07;102381.28;5011021;28;20030;-71
2022/04/27 06:18:15;;;;;;;2.38;2.20;;;;;;;19.33;37.20;102383.72;5010994;28;20030;-74
2022/04/27 06:20:41;;;;;;;2.13;2.00;;;;;;;19.40;37.10;102392.66;5009565;28;20061;-74
2022/04/27 06:23:06;;;;;;;2.10;2.00;;;;;;;19.46;37.03;102388.97;5010680;28;20049;-75
2022/04/27 06:25:33;;;;;;;2.10;1.90;;;;;;;19.51;37.04;102393.78;5010724;28;20385;-74
2022/04/27 06:27:59;;;;;;;2.22;2.03;;;;;;;19.55;37.00;102387.53;5010836;28;20034;-74
2022/04/27 06:30:25;;;;;;;2.10;2.00;;;;;;;19.59;36.75;102386.00;5009975;28;20122;-74
2022/04/27 06:32:51;;;;;;;2.10;2.00;;;;;;;19.62;37.07;102393.78;5011114;28;20466;-74
2022/04/27 06:35:17;;;;;;;1.80;1.70;;;;;;;19.66;37.04;102398.81;5010968;28;20030;-74
2022/04/27 06:37:42;;;;;;;2.55;1.88;;;;;;;19.69;37.07;102401.91;5013096;28;20041;-74
2022/04/27 06:40:09;;;;;;;2.47;1.90;;;;;;;19.72;37.27;102406.94;5014791;28;20120;-74
2022/04/27 06:42:35;;;;;;;1.80;1.70;;;;;;;19.76;37.06;102404.56;5014167;28;20034;-74
2022/04/27 06:45:01;;;;;;;1.73;1.63;;;;;;;19.77;37.44;102412.56;5014350;28;20038;-74
2022/04/27 06:47:26;;;;;;;1.90;1.60;;;;;;;19.80;37.28;102401.09;5014068;28;20048;-74
2022/04/27 06:49:52;;;;;;;1.67;1.58;;;;;;;19.81;37.18;102407.44;5014062;28;20030;-74
2022/04/27 06:52:17;;;;;;;1.60;1.50;;;;;;;19.83;37.35;102418.22;5014051;28;20458;-74
2022/04/27 06:54:43;;;;;;;1.73;1.63;;;;;;;19.85;37.41;102414.16;5014307;28;20026;-74
2022/04/27 06:57:08;;;;;;;1.45;1.40;;;;;;;19.87;37.46;102422.16;5014424;28;20366;-74
2022/04/27 06:59:34;;;;;;;1.75;1.65;;;;;;;19.87;37.31;102413.91;5012375;28;20393;-74
2022/04/27 07:01:59;;;;;;;1.40;1.30;;;;;;;19.89;37.68;102423.63;5014429;28;20026;-73
2022/04/27 07:04:26;;;;;;;1.60;1.42;;;;;;;19.90;37.72;102418.94;5029192;28;20081;-73
2022/04/27 07:06:52;;;;;;;1.65;1.55;;;;;;;19.92;37.70;102427.81;5013812;28;20030;-73
2022/04/27 07:09:17;;;;;;;1.35;1.30;;;;;;;19.93;37.83;102426.72;5014048;28;20125;-73
2022/04/27 07:11:44;;;;;;;1.70;1.60;;;;;;;19.94;37.76;102429.22;5014019;28;20037;-73
2022/04/27 07:14:13;;;;;;;1.60;1.50;;;;;;;19.95;37.83;102424.56;5012236;28;20050;-73
2022/04/27 07:16:39;;;;;;;1.17;1.17;;;;;;;19.96;37.72;102431.75;5013667;28;20026;-73
2022/04/27 07:19:04;;;;;;;1.70;1.60;;;;;;;19.96;38.04;102426.22;5013569;28;20090;-73
2022/04/27 07:21:29;;;;;;;1.63;1.52;;;;;;;19.97;37.94;102427.91;5012943;28;20465;-74
2022/04/27 07:23:56;;;;;;;1.23;1.23;;;;;;;19.98;38.17;102435.94;5013804;28;20118;-71
2022/04/27 07:26:22;;;;;;;1.60;1.50;;;;;;;20.01;38.48;102436.56;5013545;28;20038;-75
2022/04/27 07:28:47;;;;;;;1.40;1.30;;;;;;;20.04;38.26;102439.66;5013455;28;20082;-78
2022/04/27 07:31:13;;;;;;;1.23;1.20;;;;;;;20.05;38.03;102440.47;5013477;28;20030;-75
2022/04/27 07:33:38;;;;;;;1.17;1.17;;;;;;;20.06;38.12;102447.69;5013678;28;20026;-74
2022/04/27 07:36:06;;;;;;;1.50;1.40;;;;;;;20.05;38.21;102440.47;5013387;28;20045;-75
2022/04/27 07:38:31;;;;;;;1.50;1.40;;;;;;;20.05;38.27;102448.75;5012426;28;20046;-75
2022/04/27 07:40:57;;;;;;;1.10;1.10;;;;;;;20.06;38.36;102454.00;5013320;28;20056;-74
2022/04/27 07:43:22;;;;;;;1.00;1.00;;;;;;;20.05;38.23;102448.75;5013513;28;20373;-74
2022/04/27 07:45:47;;;;;;;1.50;1.40;;;;;;;20.06;38.03;102451.25;5013151;28;20072;-75
2022/04/27 07:48:13;;;;;;;1.30;1.30;;;;;;;20.08;38.32;102448.28;5011709;28;20087;-75
2022/04/27 07:50:40;;;;;;;1.40;1.30;;;;;;;20.09;38.38;102456.31;5011693;28;20040;-73
2022/04/27 07:53:05;;;;;;;1.45;1.35;;;;;;;20.10;38.54;102457.16;5012445;28;20093;-77
2022/04/27 07:55:31;;;;;;;1.13;1.13;;;;;;;20.09;38.50;102450.81;5012986;28;20041;-76
2022/04/27 07:57:56;;;;;;;1.48;1.30;;;;;;;20.10;38.58;102457.97;4995517;28;20045;-76
2022/04/27 08:00:22;;;;;;;1.40;1.30;;;;;;;20.11;38.08;102458.84;5011827;28;20113;-76
2022/04/27 08:02:47;;;;;;;1.20;1.10;;;;;;;20.13;39.07;102457.50;5013006;28;20033;-78
2022/04/27 08:05:15;;;;;;;1.35;1.25;;;;;;;20.13;38.94;102457.50;5012760;28;20389;-78
2022/04/27 08:07:46;;;;;;;1.60;1.50;;;;;;;20.14;38.78;102456.41;5012909;28;20026;-76
2022/04/27 08:10:12;;;;;;;1.20;1.10;;;;;;;20.14;37.70;102461.09;5013258;28;20037;-81
2022/04/27 08:12:40;;;;;;;1.48;1.38;;;;;;;20.12;37.75;102464.09;5012540;28;20037;-78
2022/04/27 08:15:06;;;;;;;1.58;1.40;;;;;;;20.12;37.44;102464.09;5013597;28;20038;-80
2022/04/27 08:17:33;;;;;;;2.20;1.13;;;;;;;20.14;37.21;102467.44;5013012;28;20038;-79
2022/04/27 08:22:42;;;;;;;1.20;1.20;;;;;;;20.15;36.66;102471.03;5013257;28;20095;-78
2022/04/27 08:25:08;;;;;;;1.15;1.05;;;;;;;20.15;36.76;102471.03;5012000;28;20034;-78
2022/04/27 08:27:34;;;;;;;2.38;1.15;;;;;;;20.16;36.55;102469.94;5012870;28;20034;-79
2022/04/27 08:29:59;;;;;;;1.40;1.30;;;;;;;20.17;36.16;102471.63;5012534;28;20422;-79
2022/04/27 08:32:24;;;;;;;1.83;1.15;;;;;;;20.18;36.88;102475.22;5012254;28;20559;-81
2022/04/27 08:34:50;;;;;;;2.15;1.10;;;;;;;20.20;37.95;102476.66;5012484;28;20042;-79
2022/04/27 08:37:15;;;;;;;1.42;1.20;;;;;;;20.21;38.58;102474.75;5012701;28;20032;-80
2022/04/27 08:39:41;;;;;;;1.02;1.02;;;;;;;20.22;38.12;102477.25;4994724;28;20045;-78
2022/04/27 08:42:06;;;;;;;1.65;1.38;;;;;;;20.22;37.10;102476.44;5012645;28;20107;-78
2022/04/27 08:44:32;;;;;;;1.10;1.00;;;;;;;20.23;36.21;102483.63;5013035;28;20434;-77
2022/04/27 08:46:58;;;;;;;1.20;1.10;;;;;;;20.23;36.03;102487.22;5011164;28;20034;-80
2022/04/27 08:49:24;;;;;;;1.38;1.10;;;;;;;20.23;36.03;102473.44;5011038;28;20095;-80
2022/04/27 08:51:49;;;;;;;1.00;1.00;;;;;;;20.25;35.84;102485.03;5012739;28;20419;-77
2022/04/27 08:54:16;;;;;;;2.35;1.10;;;;;;;20.25;36.72;102489.72;5011807;28;20030;-77
2022/04/27 08:56:41;;;;;;;2.08;1.15;;;;;;;20.25;37.33;102495.22;5012075;28;20496;-75
2022/04/27 08:59:08;;;;;;;1.25;1.20;;;;;;;20.26;36.57;102496.91;5012077;28;20026;-75
2022/04/27 09:01:34;;;;;;;0.95;0.95;;;;;;;20.26;36.35;102485.91;5012002;28;20030;-75
2022/04/27 09:04:18;;;;;;;1.48;1.35;;;;;;;20.25;36.61;102486.97;5011098;28;20034;-75
2022/04/27 09:06:46;;;;;;;1.40;1.30;;;;;;;20.25;36.29;102489.72;5012234;28;20034;-75
2022/04/27 09:09:32;;;;;;;1.08;1.08;;;;;;;20.27;36.42;102485.66;5010733;28;20042;-75
2022/04/27 09:11:58;;;;;;;1.27;1.17;;;;;;;20.25;35.73;102486.97;5011976;28;20109;-75
2022/04/27 09:14:36;;;;;;;1.02;0.93;;;;;;;20.26;36.22;102485.91;5011455;28;20081;-75
2022/04/27 09:22:45;;;;;;;1.02;1.00;;;;;;;20.25;36.13;102487.78;5012045;28;20161;-75
2022/04/27 09:25:11;;;;;;;1.27;1.17;;;;;;;20.24;35.43;102491.66;5011534;28;20034;-76
2022/04/27 09:27:37;;;;;;;1.10;1.00;;;;;;;20.26;35.47;102488.66;5011939;28;20030;-75
2022/04/27 09:30:11;;;;;;;1.02;1.02;;;;;;;20.26;35.61;102491.41;5010419;28;20402;-75
2022/04/27 09:32:36;;;;;;;1.45;1.35;;;;;;;20.25;34.96;102484.22;5012200;28;20030;-75
2022/04/27 09:35:03;;;;;;;1.10;1.10;;;;;;;20.26;35.07;102488.66;5027106;28;20091;-75
2022/04/27 09:37:38;;;;;;;1.67;1.30;;;;;;;20.27;36.03;102485.66;5010108;28;20100;-75
2022/04/27 09:40:05;;;;;;;1.48;1.05;;;;;;;20.27;36.15;102488.41;5011566;28;20110;-75
2022/04/27 09:42:32;;;;;;;1.25;1.02;;;;;;;20.27;36.17;102485.66;5011714;28;20087;-75
2022/04/27 09:45:20;;;;;;;1.00;0.95;;;;;;;20.29;36.22;102497.25;5010118;28;20029;-75
2022/04/27 09:48:07;;;;;;;1.17;1.17;;;;;;;20.28;36.01;102495.56;5011435;28;20041;-75
2022/04/27 09:50:50;;;;;;;1.13;1.10;;;;;;;20.30;36.03;102498.13;5011937;28;20187;-75
2022/04/27 09:53:17;;;;;;;1.00;1.00;;;;;;;20.28;36.23;102494.75;5011815;28;20425;-75
2022/04/27 09:55:56;;;;;;;1.50;1.20;;;;;;;20.30;36.76;102489.84;5011184;28;20034;-75
2022/04/27 09:58:26;;;;;;;0.93;0.93;;;;;;;20.29;35.65;102482.66;5010566;28;20026;-75
2022/04/27 10:00:56;;;;;;;1.02;1.00;;;;;;;20.28;35.28;102484.53;5010095;28;20134;-74
2022/04/27 10:03:25;;;;;;;1.30;1.20;;;;;;;20.29;35.36;102485.41;5010045;28;20045;-75
2022/04/27 10:05:51;;;;;;;1.20;1.10;;;;;;;20.29;35.60;102489.00;5010069;28;20030;-75
2022/04/27 10:08:19;;;;;;;1.30;1.20;;;;;;;20.31;35.85;102488.75;5010772;28;20057;-68
2022/04/27 10:10:45;;;;;;;0.93;0.93;;;;;;;20.31;36.30;102492.38;5013871;28;20033;-70
2022/04/27 10:13:13;;;;;;;1.00;1.00;;;;;;;20.33;35.66;102497.63;5016742;28;20393;-75
2022/04/27 10:15:43;;;;;;;1.25;1.17;;;;;;;20.35;35.73;102492.69;5018162;28;20462;-75
2022/04/27 10:18:19;;;;;;;1.33;1.23;;;;;;;20.36;35.94;102491.63;5016246;28;20113;-75
2022/04/27 10:20:50;;;;;;;1.60;1.00;;;;;;;20.36;35.78;102482.50;5017538;28;20038;-75
2022/04/27 10:23:17;;;;;;;1.10;1.10;;;;;;;20.36;35.83;102477.00;5018125;28;20034;-75
2022/04/27 10:25:42;;;;;;;1.05;1.00;;;;;;;20.37;35.80;102478.69;5017301;28;20458;-75
2022/04/27 10:28:20;;;;;;;1.00;1.00;;;;;;;20.37;36.01;102474.00;5016459;28;20041;-75
2022/04/27 10:30:46;;;;;;;1.15;1.15;;;;;;;20.36;35.75;102469.59;5016945;28;20034;-75
2022/04/27 10:33:31;;;;;;;1.13;1.13;;;;;;;20.38;35.79;102472.09;5017612;28;20434;-75
2022/04/27 10:36:39;;;;;;;1.00;1.00;;;;;;;20.41;36.10;102468.84;5017723;28;20484;-75
2022/04/27 10:39:11;;;;;;;1.00;1.00;;;;;;;20.41;35.96;102474.38;5022518;28;20038;-75
2022/04/27 10:41:38;;;;;;;1.15;1.15;;;;;;;20.40;35.93;102468.00;5016976;28;20406;-75
2022/04/27 10:44:03;;;;;;;1.00;1.00;;;;;;;20.41;35.72;102466.91;5017186;28;20040;-75
2022/04/27 10:46:36;;;;;;;1.30;1.20;;;;;;;20.41;35.84;102469.69;5016060;28;20330;-75
2022/04/27 10:49:28;;;;;;;0.90;0.90;;;;;;;20.45;35.94;102464.53;5015937;28;20065;-75
2022/04/27 10:52:05;;;;;;;1.10;1.00;;;;;;;20.45;36.07;102468.13;5017230;28;20484;-75
2022/04/27 10:54:37;;;;;;;1.02;1.02;;;;;;;20.45;36.39;102461.78;5016845;28;20030;-75
2022/04/27 10:57:28;;;;;;;;;;;;;;;20.47;36.20;102465.94;5017755;28;20033;-75
2022/04/27 11:00:02;;;;;;;1.10;1.10;;;;;;;20.46;36.51;102469.81;5039857;28;20350;-72
2022/04/27 11:02:44;;;;;;;0.90;0.90;;;;;;;20.48;36.67;102464.03;5016365;28;20121;-75
2022/04/27 11:05:13;;;;;;;1.05;0.95;;;;;;;20.49;36.97;102468.47;5016906;28;20038;-75
2022/04/27 11:07:56;;;;;;;1.00;1.00;;;;;;;20.53;37.26;102466.91;5016982;28;20054;-75
2022/04/27 11:10:22;;;;;;;1.35;1.13;;;;;;;20.52;37.40;102465.22;5016638;28;20086;-74
2022/04/27 11:12:50;;;;;;;1.02;1.02;;;;;;;20.53;37.59;102471.59;5015939;28;20075;-75
2022/04/27 11:15:27;;;;;;;1.00;1.00;;;;;;;20.55;37.40;102469.41;4999572;28;20406;-74
2022/04/27 11:18:03;;;;;;;1.40;1.17;;;;;;;20.56;37.41;102463.66;5017115;28;20141;-74
2022/04/27 11:20:34;;;;;;;1.48;1.00;;;;;;;20.56;37.48;102457.31;5016833;28;20030;-74
2022/04/27 11:23:03;;;;;;;0.82;0.80;;;;;;;20.58;37.52;102460.66;5011829;28;20606;-74
2022/04/27 11:25:30;;;;;;;1.27;1.17;;;;;;;20.59;37.85;102468.69;5013033;28;20034;-75
2022/04/27 11:27:59;;;;;;;1.20;1.10;;;;;;;20.60;37.69;102466.78;5013510;28;20113;-75
2022/04/27 11:30:27;;;;;;;1.35;1.30;;;;;;;20.59;38.00;102465.91;5013451;28;20030;-75
2022/04/27 11:32:52;;;;;;;1.00;1.00;;;;;;;20.61;38.07;102458.25;5013438;28;20431;-78
2022/04/27 11:35:22;;;;;;;1.00;1.00;;;;;;;20.63;37.61;102461.59;5012680;28;20041;-75
2022/04/27 11:37:48;;;;;;;1.58;1.00;;;;;;;20.64;38.15;102460.53;5012212;28;20038;-76
2022/04/27 11:40:18;;;;;;;0.88;0.88;;;;;;;20.67;37.94;102462.00;5012688;28;20068;-76
2022/04/27 11:42:48;;;;;;;1.63;1.15;;;;;;;20.68;37.91;102459.00;5013972;28;20030;-76
2022/04/27 11:45:19;;;;;;;1.08;1.08;;;;;;;20.71;38.30;102454.06;5013163;28;20497;-75
2022/04/27 11:47:55;;;;;;;1.02;1.02;;;;;;;20.73;37.91;102461.00;5012968;28;20030;-75
2022/04/27 11:50:20;;;;;;;0.95;0.95;;;;;;;20.74;38.22;102457.16;5012243;28;20030;-74
2022/04/27 11:53:02;;;;;;;1.20;1.10;;;;;;;20.77;38.01;102462.22;5011925;28;20030;-75